createdAt,value
2019-05-14T00:00:21.785Z,84.50
2019-05-14T00:02:48.816Z,84.80
2019-05-14T00:05:15.743Z,86.10
2019-05-14T00:07:42.764Z,85.70
2019-05-14T00:10:11.903Z,86.30
2019-05-14T00:12:39.157Z,85.40
2019-05-14T00:15:06.107Z,85.20
2019-05-14T00:17:33.072Z,86.10
2019-05-14T00:20:07.475Z,85.50
2019-05-14T00:22:28.789Z,85.90
2019-05-14T00:24:55.744Z,85.40
2019-05-14T00:27:22.734Z,85.30
2019-05-14T00:29:51.573Z,85.30
2019-05-14T00:32:18.413Z,85.90
2019-05-14T00:34:45.372Z,85.80
2019-05-14T00:37:12.337Z,85.90
2019-05-14T00:39:41.346Z,86.30
2019-05-14T00:42:08.054Z,86.10
2019-05-14T00:44:35.018Z,85.70
2019-05-14T00:47:02.274Z,85.60
2019-05-14T00:49:31.554Z,85.10
2019-05-14T00:51:58.282Z,84.80
2019-05-14T00:54:25.230Z,85.90
2019-05-14T00:56:52.296Z,85.20
2019-05-14T00:59:21.498Z,85.70
2019-05-14T01:01:47.974Z,85.20
2019-05-14T01:04:14.935Z,86.20
2019-05-14T01:06:42.196Z,85.60
2019-05-14T01:09:11.459Z,84.70
2019-05-14T01:11:38.297Z,86.50
2019-05-14T01:14:05.229Z,85.20
2019-05-14T01:16:32.184Z,85.20
2019-05-14T01:18:59.126Z,84.70
2019-05-14T01:21:26.082Z,86.10
2019-05-14T01:23:53.045Z,86.50
2019-05-14T01:26:21.787Z,86.80
2019-05-14T01:28:48.745Z,86.50
2019-05-14T01:31:15.676Z,85.20
2019-05-14T01:33:42.782Z,85.10
2019-05-14T01:36:10.267Z,85.60
2019-05-14T01:38:38.558Z,85.90
2019-05-14T01:41:05.497Z,85.90
2019-05-14T01:43:32.453Z,86.20
2019-05-14T01:46:02.122Z,85.40
2019-05-14T01:48:31.289Z,90.50
2019-05-14T01:50:58.141Z,86.00
2019-05-14T01:53:25.088Z,85.90
2019-05-14T01:55:52.254Z,85.60
2019-05-14T01:58:19.374Z,86.70
2019-05-14T02:00:46.324Z,86.60
2019-05-14T02:03:13.269Z,85.10
2019-05-14T02:05:41.632Z,85.80
2019-05-14T02:08:09.009Z,85.70
2019-05-14T02:10:35.969Z,85.50
2019-05-14T02:13:02.928Z,86.30
2019-05-14T02:15:39.059Z,86.00
2019-05-14T02:17:58.669Z,85.10
2019-05-14T02:20:25.601Z,85.80
2019-05-14T02:22:52.582Z,85.40
2019-05-14T02:25:21.542Z,85.80
2019-05-14T02:27:48.271Z,85.70
2019-05-14T02:30:15.228Z,86.20
2019-05-14T02:32:42.169Z,85.90
2019-05-14T02:35:10.069Z,85.50
2019-05-14T02:37:40.057Z,85.60
2019-05-14T02:40:09.615Z,86.50
2019-05-14T02:42:35.194Z,86.20
2019-05-14T02:45:03.434Z,85.40
2019-05-14T02:47:31.432Z,85.70
2019-05-14T02:49:59.000Z,85.70
2019-05-14T02:52:29.011Z,84.60
2019-05-14T02:54:55.084Z,84.40
2019-05-14T02:57:21.962Z,85.50
2019-05-14T02:59:50.113Z,85.20
2019-05-14T03:02:18.774Z,84.70
2019-05-14T03:04:46.022Z,84.50
2019-05-14T03:07:12.982Z,85.60
2019-05-14T03:09:40.605Z,84.60
2019-05-14T03:12:09.981Z,83.70
2019-05-14T03:14:39.620Z,85.20
2019-05-14T03:17:21.953Z,80.20
2019-05-14T03:19:49.578Z,83.80
2019-05-14T03:22:24.785Z,85.10
2019-05-14T03:24:45.698Z,84.70
2019-05-14T03:27:12.630Z,83.50
2019-05-14T03:29:40.273Z,84.50
2019-05-14T03:32:13.204Z,83.90
2019-05-14T03:34:42.097Z,83.10
2019-05-14T03:37:05.353Z,84.00
2019-05-14T03:39:32.285Z,84.00
2019-05-14T03:41:59.284Z,83.30
2019-05-14T03:44:48.775Z,83.80
2019-05-14T03:47:14.727Z,83.50
2019-05-14T03:49:41.661Z,82.80
2019-05-14T03:52:09.672Z,83.30
2019-05-14T03:54:40.243Z,83.20
2019-05-14T03:57:09.249Z,83.60
2019-05-14T03:59:34.768Z,83.60
2019-05-14T04:02:01.879Z,83.10
2019-05-14T04:04:29.964Z,82.80
2019-05-14T04:06:59.926Z,81.90
2019-05-14T04:09:29.377Z,82.50
2019-05-14T04:11:55.496Z,83.40
2019-05-14T04:14:22.462Z,82.20
2019-05-14T04:17:14.402Z,82.60
2019-05-14T04:19:44.627Z,82.60
2019-05-14T04:22:12.391Z,84.90
2019-05-14T04:24:41.487Z,82.10
2019-05-14T04:27:12.875Z,81.40
2019-05-14T04:29:39.573Z,81.50
2019-05-14T04:32:09.428Z,81.80
2019-05-14T04:34:39.686Z,82.00
2019-05-14T04:37:09.659Z,82.40
2019-05-14T04:39:39.615Z,81.20
2019-05-14T04:42:09.245Z,81.50
2019-05-14T04:44:34.649Z,80.80
2019-05-14T04:47:21.680Z,82.00
2019-05-14T04:49:30.345Z,80.50
2019-05-14T04:51:59.553Z,80.90
2019-05-14T04:54:26.035Z,80.70
2019-05-14T04:57:12.775Z,80.10
2019-05-14T04:59:40.165Z,80.60
2019-05-14T05:02:09.593Z,81.40
2019-05-14T05:04:36.119Z,82.30
2019-05-14T05:07:03.067Z,81.30
2019-05-14T05:09:30.001Z,80.40
2019-05-14T05:11:59.851Z,80.40
2019-05-14T05:14:25.703Z,80.40
2019-05-14T05:16:52.671Z,80.00
2019-05-14T05:19:19.794Z,79.80
2019-05-14T05:21:48.075Z,80.50
2019-05-14T05:24:15.561Z,80.10
2019-05-14T05:26:42.533Z,78.80
2019-05-14T05:29:10.517Z,79.70
2019-05-14T05:31:38.237Z,80.30
2019-05-14T05:34:05.365Z,81.30
2019-05-14T05:36:32.297Z,80.40
2019-05-14T05:38:59.506Z,81.20
2019-05-14T05:41:28.227Z,81.30
2019-05-14T05:43:55.272Z,81.00
2019-05-14T05:46:22.252Z,81.20
2019-05-14T05:48:49.204Z,81.80
2019-05-14T05:51:18.418Z,82.50
2019-05-14T05:53:44.931Z,82.30
2019-05-14T05:56:13.607Z,82.90
2019-05-14T05:58:40.625Z,83.00
2019-05-14T06:01:09.991Z,82.30
2019-05-14T06:03:39.259Z,81.00
2019-05-14T06:06:06.185Z,80.40
2019-05-14T06:08:34.729Z,81.40
2019-05-14T06:11:01.727Z,86.40
2019-05-14T06:13:28.845Z,80.50
2019-05-14T06:15:58.871Z,79.90
2019-05-14T06:18:25.001Z,79.90
2019-05-14T06:20:51.977Z,79.40
2019-05-14T06:23:25.308Z,78.00
2019-05-14T06:26:12.021Z,79.20
2019-05-14T06:28:40.820Z,79.70
2019-05-14T06:31:09.825Z,78.30
2019-05-14T06:33:39.143Z,77.80
2019-05-14T06:36:05.315Z,76.70
2019-05-14T06:38:32.269Z,78.10
2019-05-14T06:40:59.546Z,77.80
2019-05-14T06:43:28.769Z,78.40
2019-05-14T06:45:55.423Z,77.80
2019-05-14T06:48:30.742Z,78.80
2019-05-14T06:50:51.113Z,78.50
2019-05-14T06:53:19.497Z,77.50
2019-05-14T06:55:48.389Z,77.30
2019-05-14T06:58:15.581Z,78.00
2019-05-14T07:00:42.635Z,77.50
2019-05-14T07:03:09.590Z,78.20
2019-05-14T07:05:38.856Z,79.50
2019-05-14T07:08:08.930Z,79.30
2019-05-14T07:10:35.360Z,77.60
2019-05-14T07:13:02.298Z,78.10
2019-05-14T07:15:29.281Z,77.70
2019-05-14T07:17:58.377Z,78.50
2019-05-14T07:20:25.065Z,77.80
2019-05-14T07:22:52.001Z,78.90
2019-05-14T07:25:20.089Z,78.60
2019-05-14T07:27:48.933Z,76.20
2019-05-14T07:30:19.185Z,77.20
2019-05-14T07:32:45.084Z,77.40
2019-05-14T07:35:13.029Z,80.50
2019-05-14T07:37:52.969Z,77.10
2019-05-14T07:40:19.942Z,75.60
2019-05-14T07:42:48.710Z,75.40
2019-05-14T07:45:15.756Z,77.20
2019-05-14T07:47:42.782Z,77.70
2019-05-14T07:50:09.814Z,77.80
2019-05-14T07:52:44.927Z,74.30
2019-05-14T07:55:06.173Z,75.90
2019-05-14T07:57:34.238Z,75.00
2019-05-14T08:00:01.169Z,75.50
2019-05-14T08:02:29.024Z,75.30
2019-05-14T08:04:58.046Z,74.60
2019-05-14T08:07:25.048Z,75.30
2019-05-14T08:09:51.977Z,75.70
2019-05-14T08:12:19.387Z,75.40
2019-05-14T08:15:02.400Z,73.80
2019-05-14T08:17:18.858Z,73.60
2019-05-14T08:19:45.458Z,73.40
2019-05-14T08:22:12.572Z,72.90
2019-05-14T08:24:39.545Z,72.60
2019-05-14T08:27:08.370Z,72.80
2019-05-14T08:29:37.492Z,75.80
2019-05-14T08:32:04.013Z,74.20
2019-05-14T08:34:32.357Z,73.70
2019-05-14T08:37:03.879Z,72.00
2019-05-14T08:39:28.667Z,71.20
2019-05-14T08:42:03.621Z,71.70
2019-05-14T08:44:24.672Z,72.60
2019-05-14T08:46:51.618Z,72.10
2019-05-14T08:49:18.596Z,71.10
2019-05-14T08:51:45.577Z,71.00
2019-05-14T08:54:12.533Z,72.90
2019-05-14T08:56:39.462Z,71.70
2019-05-14T08:59:08.725Z,70.10
2019-05-14T09:01:35.234Z,71.40
2019-05-14T09:04:02.233Z,69.50
2019-05-14T09:06:29.212Z,71.40
2019-05-14T09:08:59.274Z,69.60
2019-05-14T09:11:44.598Z,71.40
2019-05-14T09:14:10.672Z,70.60
2019-05-14T09:16:45.520Z,71.50
2019-05-14T09:19:04.117Z,70.50
2019-05-14T09:21:31.160Z,69.10
2019-05-14T09:23:58.776Z,70.40
2019-05-14T09:26:28.350Z,67.80
2019-05-14T09:29:16.922Z,70.10
2019-05-14T09:31:30.790Z,68.50
2019-05-14T09:33:58.492Z,66.40
2019-05-14T09:36:25.645Z,67.20
2019-05-14T09:39:12.497Z,67.90
2019-05-14T09:41:39.507Z,70.50
2019-05-14T09:44:06.441Z,69.90
2019-05-14T09:46:33.481Z,68.30
2019-05-14T09:49:00.471Z,66.10
2019-05-14T09:51:43.991Z,68.90
2019-05-14T09:57:18.732Z,66.60
2019-05-14T09:59:47.992Z,67.80
2019-05-14T10:02:17.028Z,67.40
2019-05-14T10:04:45.147Z,66.90
2019-05-14T10:07:15.408Z,65.40
2019-05-14T10:09:41.393Z,65.20
2019-05-14T10:12:08.941Z,64.50
2019-05-14T10:14:36.149Z,64.70
2019-05-14T10:17:03.119Z,63.80
2019-05-14T10:19:30.081Z,64.10
2019-05-14T10:21:58.835Z,66.70
2019-05-14T10:24:25.778Z,66.80
2019-05-14T10:26:52.694Z,69.10
2019-05-14T10:29:19.644Z,64.20
2019-05-14T10:31:48.543Z,65.20
2019-05-14T10:34:19.018Z,65.60
2019-05-14T10:36:45.993Z,66.30
2019-05-14T10:39:14.259Z,66.20
2019-05-14T10:41:43.444Z,65.50
2019-05-14T10:44:10.559Z,62.80
2019-05-14T10:46:38.649Z,63.70
2019-05-14T10:49:16.494Z,65.30
2019-05-14T10:51:34.395Z,65.10
2019-05-14T10:54:16.892Z,65.90
2019-05-14T10:56:30.132Z,63.40
2019-05-14T10:58:58.443Z,63.00
2019-05-14T11:01:28.238Z,64.00
2019-05-14T11:03:54.470Z,62.10
2019-05-14T11:06:21.435Z,64.10
2019-05-14T11:08:49.121Z,62.00
2019-05-14T11:11:18.507Z,62.50
2019-05-14T11:13:45.277Z,64.20
2019-05-14T11:16:12.231Z,63.90
2019-05-14T11:18:40.004Z,63.40
2019-05-14T11:21:21.533Z,64.90
2019-05-14T11:23:38.418Z,65.70
2019-05-14T11:26:05.038Z,65.50
2019-05-14T11:28:32.037Z,62.40
2019-05-14T11:30:59.194Z,62.60
2019-05-14T11:33:26.134Z,62.00
2019-05-14T11:35:54.108Z,60.40
2019-05-14T11:38:29.741Z,60.20
2019-05-14T11:40:49.993Z,64.50
2019-05-14T11:43:16.933Z,63.80
2019-05-14T11:45:44.801Z,64.30
2019-05-14T11:48:11.731Z,66.30
2019-05-14T11:50:38.788Z,64.80
2019-05-14T11:53:05.709Z,63.70
2019-05-14T11:55:32.945Z,64.10
2019-05-14T11:57:59.913Z,61.10
2019-05-14T12:00:29.377Z,63.70
2019-05-14T12:02:55.625Z,65.20
2019-05-14T12:05:22.589Z,65.20
2019-05-14T12:07:49.509Z,65.60
2019-05-14T12:10:18.734Z,65.70
2019-05-14T12:12:46.030Z,64.40
2019-05-14T12:15:12.977Z,64.80
2019-05-14T12:17:39.917Z,66.30
2019-05-14T12:20:06.894Z,67.00
2019-05-14T12:22:33.833Z,65.90
2019-05-14T12:25:01.571Z,65.10
2019-05-14T12:27:28.615Z,67.90
2019-05-14T12:29:56.105Z,65.80
2019-05-14T12:32:23.102Z,64.80
2019-05-14T12:34:50.114Z,65.30
2019-05-14T12:37:18.532Z,64.70
2019-05-14T12:39:45.825Z,62.80
2019-05-14T12:42:12.789Z,63.00
2019-05-14T12:44:41.018Z,64.60
2019-05-14T12:47:09.446Z,64.90
2019-05-14T12:49:38.741Z,64.00
2019-05-14T12:52:19.103Z,63.90
2019-05-14T12:54:54.458Z,65.70
2019-05-14T12:57:22.425Z,63.20
2019-05-14T12:59:49.547Z,63.20
2019-05-14T13:02:18.733Z,63.80
2019-05-14T13:04:45.473Z,63.30
2019-05-14T13:07:25.863Z,64.50
2019-05-14T13:09:52.825Z,64.00
2019-05-14T13:12:20.465Z,64.50
2019-05-14T13:15:00.967Z,65.10
2019-05-14T13:17:28.167Z,65.60
2019-05-14T13:19:55.321Z,62.40
2019-05-14T13:22:37.995Z,63.20
2019-05-14T13:24:51.094Z,65.70
2019-05-14T13:27:19.271Z,64.20
2019-05-14T13:29:48.576Z,65.00
2019-05-14T13:32:15.259Z,66.20
2019-05-14T13:34:42.278Z,65.10
2019-05-14T13:37:09.317Z,66.30
2019-05-14T13:39:39.612Z,66.50
2019-05-14T13:42:24.877Z,64.60
2019-05-14T13:44:51.841Z,66.20
2019-05-14T13:47:18.778Z,67.80
2019-05-14T13:49:48.492Z,66.00
2019-05-14T13:52:14.499Z,67.10
2019-05-14T13:54:41.448Z,65.80
2019-05-14T13:57:11.565Z,66.70
2019-05-14T13:59:44.031Z,66.90
2019-05-14T14:02:05.940Z,65.70
2019-05-14T14:04:32.870Z,67.20
2019-05-14T14:07:01.029Z,66.10
2019-05-14T14:09:28.399Z,65.20
2019-05-14T14:11:58.614Z,66.60
2019-05-14T14:14:25.445Z,66.40
2019-05-14T14:16:52.406Z,65.90
2019-05-14T14:19:19.341Z,64.40
2019-05-14T14:22:06.043Z,64.10
2019-05-14T14:24:32.973Z,65.60
2019-05-14T14:26:59.929Z,66.00
2019-05-14T14:29:26.866Z,65.80
2019-05-14T14:31:53.816Z,64.50
2019-05-14T14:34:33.946Z,67.30
2019-05-14T14:37:00.914Z,65.70
2019-05-14T14:39:28.977Z,66.10
2019-05-14T14:41:58.301Z,66.20
2019-05-14T14:44:24.661Z,65.50
2019-05-14T14:46:51.600Z,65.80
2019-05-14T14:49:19.285Z,65.90
2019-05-14T14:51:48.957Z,64.40
2019-05-14T14:54:16.360Z,66.30
2019-05-14T14:56:43.581Z,64.80
2019-05-14T14:59:10.571Z,63.80
2019-05-14T15:01:40.263Z,63.90
2019-05-14T15:04:12.840Z,65.40
2019-05-14T15:06:35.109Z,65.30
2019-05-14T15:09:15.560Z,65.20
2019-05-14T15:11:42.565Z,66.60
2019-05-14T15:14:09.529Z,65.00
2019-05-14T15:16:39.164Z,63.20
2019-05-14T15:19:05.304Z,65.60
2019-05-14T15:21:32.245Z,66.50
2019-05-14T15:24:09.412Z,64.70
2019-05-14T15:26:28.832Z,64.60
2019-05-14T15:28:58.349Z,64.30
2019-05-14T15:31:25.540Z,64.20
2019-05-14T15:33:52.589Z,65.40
2019-05-14T15:36:19.831Z,63.50
2019-05-14T15:38:48.599Z,62.90
2019-05-14T15:41:15.822Z,63.40
2019-05-14T15:43:42.762Z,64.40
2019-05-14T15:46:09.729Z,63.00
2019-05-14T15:48:39.555Z,63.20
2019-05-14T15:51:05.434Z,61.90
2019-05-14T15:53:32.392Z,62.50
2019-05-14T15:55:59.320Z,63.80
2019-05-14T15:58:26.288Z,63.00
2019-05-14T16:01:14.159Z,62.00
2019-05-14T16:03:41.821Z,61.40
2019-05-14T16:06:09.143Z,62.10
2019-05-14T16:08:36.066Z,61.90
2019-05-14T16:11:05.618Z,61.80
2019-05-14T16:13:31.758Z,62.80
2019-05-14T16:15:58.705Z,61.10
2019-05-14T16:18:25.645Z,62.70
2019-05-14T16:20:52.603Z,61.80
2019-05-14T16:23:19.520Z,62.60
2019-05-14T16:25:48.280Z,63.10
2019-05-14T16:28:15.228Z,60.90
2019-05-14T16:30:42.194Z,60.30
2019-05-14T16:33:09.382Z,61.80
2019-05-14T16:35:39.100Z,60.00
2019-05-14T16:38:05.478Z,59.60
2019-05-14T16:40:32.437Z,60.40
2019-05-14T16:42:59.372Z,60.90
2019-05-14T16:45:28.745Z,60.80
2019-05-14T16:47:55.063Z,60.20
2019-05-14T16:50:22.017Z,60.10
2019-05-14T16:52:49.401Z,61.00
2019-05-14T16:55:24.654Z,60.40
2019-05-14T16:57:49.153Z,62.60
2019-05-14T17:00:18.394Z,61.60
2019-05-14T17:02:44.725Z,61.80
2019-05-14T17:05:12.082Z,61.80
2019-05-14T17:07:39.113Z,60.20
2019-05-14T17:10:08.247Z,60.50
2019-05-14T17:12:49.447Z,62.20
2019-05-14T17:15:04.438Z,62.60
2019-05-14T17:17:31.398Z,63.60
2019-05-14T17:19:58.765Z,61.70
2019-05-14T17:22:30.773Z,61.30
2019-05-14T17:24:54.795Z,60.50
2019-05-14T17:27:22.836Z,61.40
2019-05-14T17:29:49.781Z,63.20
2019-05-14T17:32:18.765Z,61.90
2019-05-14T17:34:45.482Z,61.50
2019-05-14T17:37:12.727Z,64.10
2019-05-14T17:39:40.675Z,64.10
2019-05-14T17:42:11.747Z,63.30
2019-05-14T17:44:38.660Z,64.10
2019-05-14T17:47:05.238Z,63.50
2019-05-14T17:49:54.944Z,64.50
2019-05-14T17:52:23.516Z,67.90
2019-05-14T17:54:50.476Z,64.30
2019-05-14T17:57:23.614Z,64.30
2019-05-14T17:59:46.178Z,64.80
2019-05-14T18:02:28.596Z,64.70
2019-05-14T18:04:57.060Z,65.90
2019-05-14T18:07:23.760Z,65.60
2019-05-14T18:09:50.797Z,65.60
2019-05-14T18:12:18.911Z,66.20
2019-05-14T18:14:48.085Z,65.60
2019-05-14T18:17:15.188Z,65.40
2019-05-14T18:19:42.124Z,66.00
2019-05-14T18:22:09.062Z,66.00
2019-05-14T18:24:35.997Z,66.20
2019-05-14T18:27:02.954Z,66.70
2019-05-14T18:29:29.899Z,67.80
2019-05-14T18:32:09.714Z,68.40
2019-05-14T18:34:38.994Z,68.60
2019-05-14T18:37:05.579Z,68.80
2019-05-14T18:39:32.621Z,68.20
2019-05-14T18:42:00.569Z,68.40
2019-05-14T18:44:28.455Z,68.40
2019-05-14T18:46:55.809Z,69.10
2019-05-14T18:49:22.756Z,68.60
2019-05-14T18:51:50.321Z,68.90
2019-05-14T18:54:17.597Z,68.20
2019-05-14T18:56:44.558Z,69.30
2019-05-14T18:59:11.508Z,70.00
2019-05-14T19:01:39.777Z,69.70
2019-05-14T19:04:08.301Z,70.00
2019-05-14T19:06:35.476Z,69.50
2019-05-14T19:09:04.309Z,69.10
2019-05-14T19:11:31.562Z,69.80
2019-05-14T19:13:58.537Z,70.00
2019-05-14T19:16:25.498Z,69.70
2019-05-14T19:18:52.450Z,71.10
2019-05-14T19:21:19.394Z,70.00
2019-05-14T19:23:46.338Z,70.30
2019-05-14T19:26:13.281Z,70.30
2019-05-14T19:28:40.238Z,70.00
2019-05-14T19:31:09.160Z,69.50
2019-05-14T19:33:37.894Z,70.30
2019-05-14T19:36:04.726Z,70.40
2019-05-14T19:38:45.223Z,70.10
2019-05-14T19:41:12.170Z,71.40
2019-05-14T19:43:59.564Z,70.70
2019-05-14T19:46:29.005Z,72.20
2019-05-14T19:48:55.482Z,71.40
2019-05-14T19:51:22.433Z,71.20
2019-05-14T19:54:12.454Z,71.30
2019-05-14T19:56:51.810Z,74.30
2019-05-14T19:59:09.075Z,71.20
2019-05-14T20:01:38.581Z,71.80
2019-05-14T20:04:05.102Z,71.70
2019-05-14T20:06:32.063Z,72.20
2019-05-14T20:08:59.194Z,72.30
2019-05-14T20:11:28.750Z,71.90
2019-05-14T20:13:55.088Z,71.80
2019-05-14T20:16:22.070Z,72.60
2019-05-14T20:18:55.343Z,72.80
2019-05-14T20:21:22.281Z,73.40
2019-05-14T20:23:49.235Z,73.50
2019-05-14T20:26:17.691Z,73.20
2019-05-14T20:28:44.823Z,73.30
2019-05-14T20:31:11.870Z,74.00
2019-05-14T20:33:38.901Z,74.30
2019-05-14T20:36:18.911Z,74.30
2019-05-14T20:38:59.058Z,75.10
2019-05-14T20:41:39.108Z,75.30
2019-05-14T20:44:06.224Z,76.10
2019-05-14T20:46:33.170Z,76.30
2019-05-14T20:49:00.106Z,75.80
2019-05-14T20:51:30.196Z,76.30
2019-05-14T20:53:58.083Z,76.10
2019-05-14T20:56:29.601Z,76.40
2019-05-14T20:59:11.877Z,80.40
2019-05-14T21:01:47.909Z,84.40
2019-05-14T21:04:14.923Z,77.10
2019-05-14T21:06:41.856Z,77.10
2019-05-14T21:09:08.813Z,77.60
2019-05-14T21:11:38.225Z,76.30
2019-05-14T21:14:04.976Z,78.80
2019-05-14T21:16:31.938Z,77.80
2019-05-14T21:18:59.287Z,78.10
2019-05-14T21:21:28.121Z,77.30
2019-05-14T21:23:55.005Z,77.70
2019-05-14T21:26:23.225Z,77.50
2019-05-14T21:29:03.103Z,77.90
2019-05-14T21:31:30.162Z,78.10
2019-05-14T21:33:58.664Z,77.60
2019-05-14T21:36:28.230Z,77.50
2019-05-14T21:38:54.708Z,77.80
2019-05-14T21:41:21.650Z,77.80
2019-05-14T21:44:01.694Z,77.90
2019-05-14T21:46:31.736Z,78.50
2019-05-14T21:48:58.925Z,78.20
2019-05-14T21:51:28.389Z,78.70
2019-05-14T21:53:58.761Z,78.20
2019-05-14T21:56:29.184Z,77.90
2019-05-14T21:58:58.573Z,78.50
2019-05-14T22:04:20.557Z,83.20
2019-05-14T22:06:49.088Z,79.10
2019-05-14T22:09:19.377Z,79.00
2019-05-14T22:11:48.463Z,83.70
2019-05-14T22:14:18.814Z,79.30
2019-05-14T22:16:45.865Z,79.50
2019-05-14T22:19:12.821Z,79.70
2019-05-14T22:21:41.919Z,79.80
2019-05-14T22:24:08.553Z,79.80
2019-05-14T22:26:35.496Z,80.10
2019-05-14T22:29:02.441Z,80.30
2019-05-14T22:31:29.454Z,80.40
2019-05-14T22:33:58.278Z,80.20
2019-05-14T22:36:25.138Z,80.30
2019-05-14T22:38:52.114Z,80.60
2019-05-14T22:41:19.043Z,81.00
2019-05-14T22:43:46.001Z,80.80
2019-05-14T22:46:12.959Z,80.80
2019-05-14T22:48:39.957Z,81.10
2019-05-14T22:51:08.671Z,81.20
2019-05-14T22:53:35.670Z,81.50
2019-05-14T22:56:02.634Z,81.40
2019-05-14T22:58:29.630Z,81.20
2019-05-14T23:04:11.085Z,81.30
2019-05-14T23:06:38.339Z,82.70
2019-05-14T23:09:05.634Z,81.30
2019-05-14T23:11:32.577Z,81.30
2019-05-14T23:13:59.529Z,81.20
2019-05-14T23:16:34.443Z,81.20
2019-05-14T23:18:55.249Z,81.40
2019-05-14T23:21:34.983Z,81.30
2019-05-14T23:24:01.961Z,81.40
2019-05-14T23:26:30.122Z,81.40
2019-05-14T23:28:58.713Z,81.30
2019-05-14T23:31:28.818Z,81.20
2019-05-14T23:34:15.389Z,81.30
2019-05-14T23:36:42.341Z,81.70
2019-05-14T23:39:09.294Z,81.40
2019-05-14T23:41:38.371Z,81.10
2019-05-14T23:44:05.481Z,81.50
2019-05-14T23:46:32.449Z,81.50
2019-05-14T23:48:59.517Z,81.50
2019-05-14T23:51:28.839Z,81.50
2019-05-14T23:53:55.213Z,81.60
2019-05-14T23:56:22.172Z,81.50
2019-05-14T23:58:57.664Z,81.70
